Cedarbutte, South Dakota
Current Conditions -  °F | °C
As of 8:55 AM on Wednesday 26 Nov 2014 (Local Time) from KPHP Reporting Station
Overcast Overcast  
Wind Chill: 24°   Ceiling: 2500
Heat Index: 24°   Visibility: 10mi
Dew Point: 18°   Wind: 0mph
Humidity: 77%   Direction: NA
Pressure: 30.29"   Gusts: NA
Location:  43.6197°N, 100.883°W
Report Text: KPHP 261455Z AUTO 00000KT 10SM OVC025 M04/M08 A3029 RMK AO2 SLP278 T10441078 51021
Loading
Personal Weather Stations






























Interactive Weather Map New forecast layout! Learn more

10-Day Weather Forecast

Advertisements
Track Severe Weather on mobile